Alabama, New York
Current Conditions -  °F | °C
As of 6:54 AM on Saturday 01 Nov 2014 (Local Time) from KBUF Reporting Station
Light Rain Light Rain  
Wind Chill: 31°   Ceiling: 700
Heat Index: 39°   Visibility: 10mi
Dew Point: 36°   Wind: 13mph
Humidity: 89%   Direction: 10°N
Pressure: 30.04"   Gusts: 21mph
Location:  43.1°N, 78.39°W
Report Text: KBUF 011054Z 01011G18KT 10SM -RA OVC007 04/02 A3004 RMK AO2 SLP177 P0000 T00390022
Loading
Personal Weather Stations






























Interactive Weather Map
Tropical Storm Tracking
New forecast layout! Learn more

10-Day Weather Forecast

Advertisements
Track Severe Weather on mobile